sensor_id;sensor_type;location;lat;lon;timestamp;pressure;altitude;pressure_sealevel;temperature;humidity
59274;BME280;45044;41.572;24.730;2023-02-12T00:01:17;92001.28;;;-7.21;100.00
59274;BME280;45044;41.572;24.730;2023-02-12T00:03:44;92000.22;;;-7.63;100.00
59274;BME280;45044;41.572;24.730;2023-02-12T00:06:12;91992.44;;;-7.46;100.00
59274;BME280;45044;41.572;24.730;2023-02-12T00:08:41;91987.19;;;-7.29;100.00
59274;BME280;45044;41.572;24.730;2023-02-12T00:11:12;91975.81;;;-7.11;100.00
59274;BME280;45044;41.572;24.730;2023-02-12T00:13:39;91972.53;;;-6.95;100.00
59274;BME280;45044;41.572;24.730;2023-02-12T00:16:14;91970.44;;;-7.09;100.00
59274;BME280;45044;41.572;24.730;2023-02-12T00:18:42;91977.59;;;-7.49;100.00
59274;BME280;45044;41.572;24.730;2023-02-12T00:21:10;91976.50;;;-7.59;100.00
59274;BME280;45044;41.572;24.730;2023-02-12T00:23:38;91981.75;;;-7.38;100.00
59274;BME280;45044;41.572;24.730;2023-02-12T00:26:08;91981.06;;;-7.61;100.00
59274;BME280;45044;41.572;24.730;2023-02-12T00:28:36;91979.91;;;-7.48;100.00
59274;BME280;45044;41.572;24.730;2023-02-12T00:31:18;91971.03;;;-7.40;100.00
59274;BME280;45044;41.572;24.730;2023-02-12T00:33:45;91977.06;;;-7.51;100.00
59274;BME280;45044;41.572;24.730;2023-02-12T00:36:15;91968.25;;;-7.33;100.00
59274;BME280;45044;41.572;24.730;2023-02-12T00:38:42;91954.94;;;-7.35;100.00
59274;BME280;45044;41.572;24.730;2023-02-12T00:41:10;91970.06;;;-7.23;100.00
59274;BME280;45044;41.572;24.730;2023-02-12T00:43:36;91964.22;;;-7.24;100.00
59274;BME280;45044;41.572;24.730;2023-02-12T00:46:04;91959.81;;;-7.34;100.00
59274;BME280;45044;41.572;24.730;2023-02-12T00:48:33;91968.63;;;-7.52;100.00
59274;BME280;45044;41.572;24.730;2023-02-12T00:51:00;91958.16;;;-7.50;100.00
59274;BME280;45044;41.572;24.730;2023-02-12T00:53:28;91948.94;;;-7.57;100.00
59274;BME280;45044;41.572;24.730;2023-02-12T00:55:55;91956.56;;;-7.62;100.00
59274;BME280;45044;41.572;24.730;2023-02-12T00:58:22;91949.09;;;-7.69;100.00
59274;BME280;45044;41.572;24.730;2023-02-12T01:00:57;91953.41;;;-7.74;100.00
59274;BME280;45044;41.572;24.730;2023-02-12T01:03:24;91923.53;;;-7.69;100.00
59274;BME280;45044;41.572;24.730;2023-02-12T01:05:52;91947.06;;;-7.28;100.00
59274;BME280;45044;41.572;24.730;2023-02-12T01:08:20;91957.38;;;-7.13;100.00
59274;BME280;45044;41.572;24.730;2023-02-12T01:10:55;91944.66;;;-7.02;100.00
59274;BME280;45044;41.572;24.730;2023-02-12T01:13:22;91932.94;;;-6.93;100.00
59274;BME280;45044;41.572;24.730;2023-02-12T01:16:04;91938.09;;;-6.82;100.00
59274;BME280;45044;41.572;24.730;2023-02-12T01:18:34;91933.22;;;-6.84;100.00
59274;BME280;45044;41.572;24.730;2023-02-12T01:21:02;91928.75;;;-7.10;100.00
59274;BME280;45044;41.572;24.730;2023-02-12T01:23:33;91926.53;;;-6.95;100.00
59274;BME280;45044;41.572;24.730;2023-02-12T01:26:00;91924.72;;;-7.00;100.00
59274;BME280;45044;41.572;24.730;2023-02-12T01:28:26;91927.59;;;-6.86;100.00
59274;BME280;45044;41.572;24.730;2023-02-12T01:30:53;91922.16;;;-7.00;100.00
59274;BME280;45044;41.572;24.730;2023-02-12T01:33:20;91916.06;;;-6.89;100.00
59274;BME280;45044;41.572;24.730;2023-02-12T01:35:47;91908.91;;;-6.81;100.00
59274;BME280;45044;41.572;24.730;2023-02-12T01:38:13;91902.41;;;-7.15;100.00
59274;BME280;45044;41.572;24.730;2023-02-12T01:40:40;91908.44;;;-6.83;100.00
59274;BME280;45044;41.572;24.730;2023-02-12T01:43:11;91897.47;;;-6.68;100.00
59274;BME280;45044;41.572;24.730;2023-02-12T01:45:48;91911.84;;;-6.52;100.00
59274;BME280;45044;41.572;24.730;2023-02-12T01:48:17;91904.69;;;-6.34;100.00
59274;BME280;45044;41.572;24.730;2023-02-12T01:50:47;91906.94;;;-6.69;100.00
59274;BME280;45044;41.572;24.730;2023-02-12T01:53:15;91890.91;;;-6.38;100.00
59274;BME280;45044;41.572;24.730;2023-02-12T01:55:47;91887.81;;;-6.30;100.00
59274;BME280;45044;41.572;24.730;2023-02-12T01:58:15;91886.03;;;-6.24;100.00
59274;BME280;45044;41.572;24.730;2023-02-12T02:00:43;91886.56;;;-6.17;100.00
59274;BME280;45044;41.572;24.730;2023-02-12T02:03:10;91883.22;;;-6.38;100.00
59274;BME280;45044;41.572;24.730;2023-02-12T02:05:40;91885.25;;;-6.45;100.00
59274;BME280;45044;41.572;24.730;2023-02-12T02:08:09;91878.56;;;-6.52;100.00
59274;BME280;45044;41.572;24.730;2023-02-12T02:10:36;91887.03;;;-6.51;100.00
59274;BME280;45044;41.572;24.730;2023-02-12T02:13:03;91876.78;;;-6.62;100.00
59274;BME280;45044;41.572;24.730;2023-02-12T02:16:04;91880.13;;;-6.35;100.00
59274;BME280;45044;41.572;24.730;2023-02-12T02:18:42;91879.91;;;-6.13;100.00
59274;BME280;45044;41.572;24.730;2023-02-12T02:21:41;91853.03;;;-6.26;100.00
59274;BME280;45044;41.572;24.730;2023-02-12T02:24:24;91889.09;;;-5.96;100.00
59274;BME280;45044;41.572;24.730;2023-02-12T02:27:13;91873.25;;;-6.19;100.00
59274;BME280;45044;41.572;24.730;2023-02-12T02:32:24;91876.84;;;-6.20;100.00
59274;BME280;45044;41.572;24.730;2023-02-12T02:35:10;91870.16;;;-6.31;100.00
59274;BME280;45044;41.572;24.730;2023-02-12T02:37:57;91869.34;;;-6.63;100.00
59274;BME280;45044;41.572;24.730;2023-02-12T02:40:31;91876.03;;;-6.36;100.00
59274;BME280;45044;41.572;24.730;2023-02-12T02:43:06;91855.25;;;-6.76;100.00
59274;BME280;45044;41.572;24.730;2023-02-12T02:45:50;91873.97;;;-6.55;100.00
59274;BME280;45044;41.572;24.730;2023-02-12T02:48:41;91861.19;;;-6.44;100.00
59274;BME280;45044;41.572;24.730;2023-02-12T02:51:13;91871.16;;;-6.43;100.00
59274;BME280;45044;41.572;24.730;2023-02-12T02:53:45;91868.13;;;-6.29;100.00
59274;BME280;45044;41.572;24.730;2023-02-12T02:56:16;91864.03;;;-6.15;100.00
59274;BME280;45044;41.572;24.730;2023-02-12T02:58:53;91863.00;;;-6.24;100.00
59274;BME280;45044;41.572;24.730;2023-02-12T03:04:01;91867.34;;;-6.45;100.00
59274;BME280;45044;41.572;24.730;2023-02-12T03:07:01;91874.28;;;-6.15;100.00
59274;BME280;45044;41.572;24.730;2023-02-12T03:09:37;91852.25;;;-6.37;100.00
59274;BME280;45044;41.572;24.730;2023-02-12T03:12:05;91853.00;;;-6.36;100.00
59274;BME280;45044;41.572;24.730;2023-02-12T03:14:37;91860.41;;;-6.45;100.00
59274;BME280;45044;41.572;24.730;2023-02-12T03:17:15;91859.66;;;-6.40;100.00
59274;BME280;45044;41.572;24.730;2023-02-12T03:19:49;91850.72;;;-6.27;100.00
59274;BME280;45044;41.572;24.730;2023-02-12T03:22:23;91856.84;;;-6.44;100.00
59274;BME280;45044;41.572;24.730;2023-02-12T03:24:56;91852.22;;;-6.52;100.00
59274;BME280;45044;41.572;24.730;2023-02-12T03:27:33;91854.25;;;-6.65;100.00
59274;BME280;45044;41.572;24.730;2023-02-12T03:30:02;91854.28;;;-6.49;100.00
59274;BME280;45044;41.572;24.730;2023-02-12T03:32:50;91833.28;;;-6.56;100.00
59274;BME280;45044;41.572;24.730;2023-02-12T03:35:31;91836.84;;;-6.57;100.00
59274;BME280;45044;41.572;24.730;2023-02-12T03:41:15;91831.47;;;-6.77;100.00
59274;BME280;45044;41.572;24.730;2023-02-12T03:44:13;91816.63;;;-6.75;100.00
59274;BME280;45044;41.572;24.730;2023-02-12T03:49:26;91826.63;;;-6.57;100.00
59274;BME280;45044;41.572;24.730;2023-02-12T03:51:54;91831.25;;;-6.44;100.00
59274;BME280;45044;41.572;24.730;2023-02-12T03:54:28;91828.19;;;-6.51;100.00
59274;BME280;45044;41.572;24.730;2023-02-12T03:57:08;91832.00;;;-6.64;100.00
59274;BME280;45044;41.572;24.730;2023-02-12T03:59:37;91825.63;;;-6.62;100.00
59274;BME280;45044;41.572;24.730;2023-02-12T04:02:05;91827.59;;;-6.79;100.00
59274;BME280;45044;41.572;24.730;2023-02-12T04:04:33;91838.16;;;-6.60;100.00
59274;BME280;45044;41.572;24.730;2023-02-12T04:07:00;91824.31;;;-6.69;100.00
59274;BME280;45044;41.572;24.730;2023-02-12T04:09:27;91836.84;;;-6.63;100.00
59274;BME280;45044;41.572;24.730;2023-02-12T04:12:12;91863.72;;;-6.60;100.00
59274;BME280;45044;41.572;24.730;2023-02-12T04:14:48;91788.16;;;-7.10;100.00
59274;BME280;45044;41.572;24.730;2023-02-12T04:25:54;91858.63;;;-6.60;100.00
59274;BME280;45044;41.572;24.730;2023-02-12T04:28:30;91824.06;;;-6.73;100.00
59274;BME280;45044;41.572;24.730;2023-02-12T04:31:29;91836.59;;;-6.71;100.00
59274;BME280;45044;41.572;24.730;2023-02-12T04:36:36;91842.94;;;-6.79;100.00
59274;BME280;45044;41.572;24.730;2023-02-12T04:39:08;91846.09;;;-6.51;100.00
59274;BME280;45044;41.572;24.730;2023-02-12T04:41:38;91842.50;;;-6.50;100.00
59274;BME280;45044;41.572;24.730;2023-02-12T04:44:36;91842.28;;;-6.43;100.00
59274;BME280;45044;41.572;24.730;2023-02-12T04:47:03;91836.38;;;-6.39;100.00
59274;BME280;45044;41.572;24.730;2023-02-12T04:49:30;91839.19;;;-6.25;100.00
59274;BME280;45044;41.572;24.730;2023-02-12T04:51:57;91849.69;;;-6.31;100.00
59274;BME280;45044;41.572;24.730;2023-02-12T04:54:24;91851.72;;;-6.44;100.00
59274;BME280;45044;41.572;24.730;2023-02-12T04:56:51;91857.63;;;-6.33;100.00
59274;BME280;45044;41.572;24.730;2023-02-12T04:59:17;91847.91;;;-6.10;100.00
59274;BME280;45044;41.572;24.730;2023-02-12T05:01:44;91855.03;;;-6.49;100.00
59274;BME280;45044;41.572;24.730;2023-02-12T05:04:17;91855.06;;;-6.38;100.00
59274;BME280;45044;41.572;24.730;2023-02-12T05:06:45;91862.50;;;-6.26;100.00
59274;BME280;45044;41.572;24.730;2023-02-12T05:09:17;91861.97;;;-6.02;100.00
59274;BME280;45044;41.572;24.730;2023-02-12T05:11:44;91869.69;;;-6.07;100.00
59274;BME280;45044;41.572;24.730;2023-02-12T05:14:11;91861.44;;;-6.30;100.00
59274;BME280;45044;41.572;24.730;2023-02-12T05:16:38;91863.25;;;-6.26;100.00
59274;BME280;45044;41.572;24.730;2023-02-12T05:19:05;91863.50;;;-6.32;100.00
59274;BME280;45044;41.572;24.730;2023-02-12T05:21:35;91869.16;;;-6.09;100.00
59274;BME280;45044;41.572;24.730;2023-02-12T05:24:02;91872.72;;;-6.00;100.00
59274;BME280;45044;41.572;24.730;2023-02-12T05:26:29;91871.16;;;-5.70;100.00
59274;BME280;45044;41.572;24.730;2023-02-12T05:28:55;91873.47;;;-5.68;100.00
59274;BME280;45044;41.572;24.730;2023-02-12T05:31:22;91885.03;;;-6.13;100.00
59274;BME280;45044;41.572;24.730;2023-02-12T05:33:49;91878.63;;;-5.89;100.00
59274;BME280;45044;41.572;24.730;2023-02-12T05:36:21;91896.78;;;-5.85;100.00
59274;BME280;45044;41.572;24.730;2023-02-12T05:38:50;91882.44;;;-6.18;100.00
59274;BME280;45044;41.572;24.730;2023-02-12T05:41:20;91893.72;;;-6.19;100.00
59274;BME280;45044;41.572;24.730;2023-02-12T05:43:48;91897.53;;;-6.37;100.00
59274;BME280;45044;41.572;24.730;2023-02-12T05:46:19;91890.09;;;-6.49;100.00
59274;BME280;45044;41.572;24.730;2023-02-12T05:48:46;91907.81;;;-6.16;100.00
59274;BME280;45044;41.572;24.730;2023-02-12T05:51:16;91906.53;;;-6.29;100.00
59274;BME280;45044;41.572;24.730;2023-02-12T05:53:43;91907.31;;;-6.13;100.00
59274;BME280;45044;41.572;24.730;2023-02-12T05:56:15;91928.56;;;-6.13;100.00
59274;BME280;45044;41.572;24.730;2023-02-12T05:58:44;91912.91;;;-5.85;100.00
59274;BME280;45044;41.572;24.730;2023-02-12T06:01:15;91921.88;;;-5.72;100.00
59274;BME280;45044;41.572;24.730;2023-02-12T06:03:43;91901.91;;;-5.75;100.00
59274;BME280;45044;41.572;24.730;2023-02-12T06:06:10;91921.84;;;-5.35;100.00
59274;BME280;45044;41.572;24.730;2023-02-12T06:08:37;91923.38;;;-5.19;100.00
59274;BME280;45044;41.572;24.730;2023-02-12T06:11:07;91937.16;;;-4.99;100.00
59274;BME280;45044;41.572;24.730;2023-02-12T06:13:35;91930.00;;;-5.12;100.00
59274;BME280;45044;41.572;24.730;2023-02-12T06:16:02;91933.13;;;-5.26;100.00
59274;BME280;45044;41.572;24.730;2023-02-12T06:18:29;91925.38;;;-5.05;100.00
59274;BME280;45044;41.572;24.730;2023-02-12T06:20:56;91921.47;;;-4.76;100.00
59274;BME280;45044;41.572;24.730;2023-02-12T06:23:23;91926.31;;;-4.75;100.00
59274;BME280;45044;41.572;24.730;2023-02-12T06:25:54;91929.28;;;-4.52;100.00
59274;BME280;45044;41.572;24.730;2023-02-12T06:28:22;91929.16;;;-4.21;100.00
59274;BME280;45044;41.572;24.730;2023-02-12T06:30:49;91929.00;;;-3.94;100.00
59274;BME280;45044;41.572;24.730;2023-02-12T06:33:16;91934.03;;;-3.79;98.83
59274;BME280;45044;41.572;24.730;2023-02-12T06:35:43;91918.22;;;-3.62;90.30
59274;BME280;45044;41.572;24.730;2023-02-12T06:38:10;91936.25;;;-3.67;98.30
59274;BME280;45044;41.572;24.730;2023-02-12T06:40:37;91944.13;;;-4.38;100.00
59274;BME280;45044;41.572;24.730;2023-02-12T06:43:04;91940.69;;;-4.18;100.00
59274;BME280;45044;41.572;24.730;2023-02-12T06:45:32;91949.06;;;-3.97;100.00
59274;BME280;45044;41.572;24.730;2023-02-12T06:47:59;91948.91;;;-3.76;100.00
59274;BME280;45044;41.572;24.730;2023-02-12T06:50:26;91953.53;;;-3.78;100.00
59274;BME280;45044;41.572;24.730;2023-02-12T06:52:53;91927.13;;;-3.89;100.00
59274;BME280;45044;41.572;24.730;2023-02-12T06:55:20;91955.31;;;-3.73;100.00
59274;BME280;45044;41.572;24.730;2023-02-12T06:57:46;91947.38;;;-3.77;100.00
59274;BME280;45044;41.572;24.730;2023-02-12T07:00:13;91955.59;;;-3.75;100.00
59274;BME280;45044;41.572;24.730;2023-02-12T07:02:40;91962.59;;;-3.45;100.00
59274;BME280;45044;41.572;24.730;2023-02-12T07:05:07;91972.78;;;-3.70;100.00
59274;BME280;45044;41.572;24.730;2023-02-12T07:07:34;91978.91;;;-3.66;100.00
59274;BME280;45044;41.572;24.730;2023-02-12T07:10:01;91968.31;;;-3.59;100.00
59274;BME280;45044;41.572;24.730;2023-02-12T07:12:27;91939.75;;;-3.22;100.00
59274;BME280;45044;41.572;24.730;2023-02-12T07:14:54;91959.00;;;-2.90;100.00
59274;BME280;45044;41.572;24.730;2023-02-12T07:17:21;91964.59;;;-2.58;100.00
59274;BME280;45044;41.572;24.730;2023-02-12T07:19:47;91969.00;;;-2.39;100.00
59274;BME280;45044;41.572;24.730;2023-02-12T07:22:14;91974.09;;;-2.83;100.00
59274;BME280;45044;41.572;24.730;2023-02-12T07:24:41;91977.09;;;-2.27;97.37
59274;BME280;45044;41.572;24.730;2023-02-12T07:27:09;91974.63;;;-1.94;90.87
59274;BME280;45044;41.572;24.730;2023-02-12T07:29:35;91974.00;;;-1.33;90.92
59274;BME280;45044;41.572;24.730;2023-02-12T07:32:02;91965.97;;;-0.98;91.98
59274;BME280;45044;41.572;24.730;2023-02-12T07:34:29;91956.44;;;-0.69;82.91
59274;BME280;45044;41.572;24.730;2023-02-12T07:36:56;91967.78;;;-0.98;77.47
59274;BME280;45044;41.572;24.730;2023-02-12T07:39:22;91968.69;;;-0.61;78.50
59274;BME280;45044;41.572;24.730;2023-02-12T07:41:49;91958.94;;;-0.35;81.12
59274;BME280;45044;41.572;24.730;2023-02-12T07:44:16;91956.63;;;0.51;75.54
59274;BME280;45044;41.572;24.730;2023-02-12T07:46:47;91960.47;;;1.49;70.59
59274;BME280;45044;41.572;24.730;2023-02-12T07:49:17;91969.78;;;2.18;66.29
59274;BME280;45044;41.572;24.730;2023-02-12T07:51:45;91958.34;;;2.63;64.67
59274;BME280;45044;41.572;24.730;2023-02-12T07:54:12;91955.16;;;2.39;65.51
59274;BME280;45044;41.572;24.730;2023-02-12T07:56:41;91954.50;;;2.69;65.16
59274;BME280;45044;41.572;24.730;2023-02-12T07:59:13;91942.63;;;2.42;62.58
59274;BME280;45044;41.572;24.730;2023-02-12T08:01:48;91947.94;;;2.63;64.10
59274;BME280;45044;41.572;24.730;2023-02-12T08:04:17;91946.88;;;2.64;63.64
59274;BME280;45044;41.572;24.730;2023-02-12T08:06:46;91942.47;;;2.47;64.93
59274;BME280;45044;41.572;24.730;2023-02-12T08:09:17;91942.91;;;2.40;64.49
59274;BME280;45044;41.572;24.730;2023-02-12T08:11:44;91937.84;;;2.79;65.27
59274;BME280;45044;41.572;24.730;2023-02-12T08:14:12;91936.44;;;2.82;67.24
59274;BME280;45044;41.572;24.730;2023-02-12T08:16:40;91943.47;;;2.90;65.53
59274;BME280;45044;41.572;24.730;2023-02-12T08:19:08;91934.34;;;2.66;66.22
59274;BME280;45044;41.572;24.730;2023-02-12T08:21:44;91935.72;;;2.55;67.33
59274;BME280;45044;41.572;24.730;2023-02-12T08:24:12;91936.03;;;2.62;67.96
59274;BME280;45044;41.572;24.730;2023-02-12T08:26:39;91938.94;;;2.51;71.14
59274;BME280;45044;41.572;24.730;2023-02-12T08:29:13;91940.03;;;2.59;70.67
59274;BME280;45044;41.572;24.730;2023-02-12T08:31:43;91947.31;;;2.75;71.21
59274;BME280;45044;41.572;24.730;2023-02-12T08:34:24;91943.81;;;2.62;69.88
59274;BME280;45044;41.572;24.730;2023-02-12T08:36:53;91938.53;;;3.15;70.17
59274;BME280;45044;41.572;24.730;2023-02-12T08:39:21;91945.09;;;3.21;69.50
59274;BME280;45044;41.572;24.730;2023-02-12T08:41:48;91938.84;;;3.14;71.17
59274;BME280;45044;41.572;24.730;2023-02-12T08:44:16;91938.81;;;3.22;71.87
59274;BME280;45044;41.572;24.730;2023-02-12T08:46:49;91941.41;;;3.22;74.11
59274;BME280;45044;41.572;24.730;2023-02-12T08:49:21;91942.09;;;3.02;73.75
59274;BME280;45044;41.572;24.730;2023-02-12T08:51:51;91944.84;;;3.05;76.64
59274;BME280;45044;41.572;24.730;2023-02-12T08:54:20;91951.69;;;3.10;76.40
59274;BME280;45044;41.572;24.730;2023-02-12T08:56:47;91950.03;;;3.44;73.31
59274;BME280;45044;41.572;24.730;2023-02-12T08:59:15;91947.97;;;3.89;72.18
59274;BME280;45044;41.572;24.730;2023-02-12T09:01:43;91949.53;;;4.33;68.27
59274;BME280;45044;41.572;24.730;2023-02-12T09:04:15;91945.56;;;5.03;65.58
59274;BME280;45044;41.572;24.730;2023-02-12T09:06:44;91949.41;;;5.19;63.28
59274;BME280;45044;41.572;24.730;2023-02-12T09:09:12;91949.38;;;5.78;61.48
59274;BME280;45044;41.572;24.730;2023-02-12T09:11:39;91952.50;;;6.21;59.37
59274;BME280;45044;41.572;24.730;2023-02-12T09:14:09;91953.94;;;6.47;58.26
59274;BME280;45044;41.572;24.730;2023-02-12T09:16:37;91948.34;;;7.67;55.42
59274;BME280;45044;41.572;24.730;2023-02-12T09:19:06;91952.75;;;7.63;54.11
59274;BME280;45044;41.572;24.730;2023-02-12T09:21:33;91957.97;;;7.95;51.82
59274;BME280;45044;41.572;24.730;2023-02-12T09:24:01;91963.47;;;7.90;52.67
59274;BME280;45044;41.572;24.730;2023-02-12T09:26:29;91960.56;;;6.86;53.07
59274;BME280;45044;41.572;24.730;2023-02-12T09:28:56;91954.41;;;7.06;52.40
59274;BME280;45044;41.572;24.730;2023-02-12T09:31:27;91954.50;;;7.26;52.86
59274;BME280;45044;41.572;24.730;2023-02-12T09:34:04;91952.56;;;7.23;51.92
59274;BME280;45044;41.572;24.730;2023-02-12T09:36:32;91958.44;;;8.17;52.15
59274;BME280;45044;41.572;24.730;2023-02-12T09:38:59;91949.22;;;8.07;50.38
59274;BME280;45044;41.572;24.730;2023-02-12T09:42:21;91955.00;;;9.32;49.45
59274;BME280;45044;41.572;24.730;2023-02-12T09:44:46;91958.56;;;10.17;47.28
59274;BME280;45044;41.572;24.730;2023-02-12T09:53:02;91942.59;;;9.76;46.05
59274;BME280;45044;41.572;24.730;2023-02-12T09:55:32;91945.44;;;10.17;46.19
59274;BME280;45044;41.572;24.730;2023-02-12T09:58:09;91944.09;;;8.67;47.68
59274;BME280;45044;41.572;24.730;2023-02-12T10:00:38;91949.69;;;8.85;47.27
59274;BME280;45044;41.572;24.730;2023-02-12T10:03:11;91958.28;;;7.13;49.76
59274;BME280;45044;41.572;24.730;2023-02-12T10:05:43;91946.38;;;6.99;50.63
59274;BME280;45044;41.572;24.730;2023-02-12T10:08:34;91958.91;;;6.65;51.46
59274;BME280;45044;41.572;24.730;2023-02-12T10:14:10;91969.78;;;6.01;51.28
59274;BME280;45044;41.572;24.730;2023-02-12T10:22:13;91962.25;;;5.24;55.36
59274;BME280;45044;41.572;24.730;2023-02-12T10:25:06;91980.66;;;5.06;56.51
59274;BME280;45044;41.572;24.730;2023-02-12T10:27:40;91982.13;;;4.95;58.09
59274;BME280;45044;41.572;24.730;2023-02-12T10:30:21;91975.91;;;5.08;58.06
59274;BME280;45044;41.572;24.730;2023-02-12T10:32:53;91984.66;;;5.03;57.77
59274;BME280;45044;41.572;24.730;2023-02-12T10:35:21;91975.19;;;4.86;57.20
59274;BME280;45044;41.572;24.730;2023-02-12T10:40:28;91973.03;;;3.73;52.75
59274;BME280;45044;41.572;24.730;2023-02-12T10:42:59;91980.69;;;3.99;51.28
59274;BME280;45044;41.572;24.730;2023-02-12T10:48:30;91981.00;;;3.98;48.48
59274;BME280;45044;41.572;24.730;2023-02-12T10:51:11;91979.47;;;3.97;49.80
59274;BME280;45044;41.572;24.730;2023-02-12T10:53:44;91978.41;;;3.98;48.89
59274;BME280;45044;41.572;24.730;2023-02-12T10:58:41;91978.22;;;3.73;48.88
59274;BME280;45044;41.572;24.730;2023-02-12T11:01:27;91987.72;;;3.99;49.17
59274;BME280;45044;41.572;24.730;2023-02-12T11:03:57;91988.59;;;4.33;48.33
59274;BME280;45044;41.572;24.730;2023-02-12T11:06:28;91987.22;;;4.57;49.03
59274;BME280;45044;41.572;24.730;2023-02-12T11:08:56;91987.19;;;5.96;47.68
59274;BME280;45044;41.572;24.730;2023-02-12T11:11:28;91988.06;;;5.63;45.95
59274;BME280;45044;41.572;24.730;2023-02-12T11:14:01;91986.72;;;5.44;46.10
59274;BME280;45044;41.572;24.730;2023-02-12T11:16:32;91989.06;;;5.24;45.82
59274;BME280;45044;41.572;24.730;2023-02-12T11:19:05;91980.00;;;5.43;47.05
59274;BME280;45044;41.572;24.730;2023-02-12T11:21:33;91962.34;;;5.27;46.72
59274;BME280;45044;41.572;24.730;2023-02-12T11:24:20;91988.81;;;5.63;46.81
59274;BME280;45044;41.572;24.730;2023-02-12T11:26:47;91981.72;;;5.39;46.56
59274;BME280;45044;41.572;24.730;2023-02-12T11:29:22;91992.06;;;5.01;46.54
59274;BME280;45044;41.572;24.730;2023-02-12T11:32:00;91990.34;;;4.84;47.70
59274;BME280;45044;41.572;24.730;2023-02-12T11:34:27;91992.91;;;4.72;48.40
59274;BME280;45044;41.572;24.730;2023-02-12T11:36:55;91984.72;;;4.61;47.54
59274;BME280;45044;41.572;24.730;2023-02-12T11:39:29;91998.06;;;4.59;47.76
59274;BME280;45044;41.572;24.730;2023-02-12T11:42:01;91998.59;;;4.52;47.87
59274;BME280;45044;41.572;24.730;2023-02-12T11:44:37;92005.22;;;4.19;48.67
59274;BME280;45044;41.572;24.730;2023-02-12T11:47:08;91995.59;;;3.90;49.16
59274;BME280;45044;41.572;24.730;2023-02-12T11:49:43;91982.97;;;4.01;48.31
59274;BME280;45044;41.572;24.730;2023-02-12T11:52:23;91993.53;;;4.26;48.13
59274;BME280;45044;41.572;24.730;2023-02-12T11:54:52;91986.44;;;4.35;47.40
59274;BME280;45044;41.572;24.730;2023-02-12T11:57:47;91969.59;;;4.11;48.52
59274;BME280;45044;41.572;24.730;2023-02-12T12:00:36;91993.88;;;4.46;47.14
59274;BME280;45044;41.572;24.730;2023-02-12T12:03:17;91982.56;;;4.63;48.13
59274;BME280;45044;41.572;24.730;2023-02-12T12:11:48;91986.72;;;5.44;46.77
59274;BME280;45044;41.572;24.730;2023-02-12T12:14:26;91993.78;;;5.56;47.12
59274;BME280;45044;41.572;24.730;2023-02-12T12:17:02;91992.94;;;5.77;47.43
59274;BME280;45044;41.572;24.730;2023-02-12T12:25:53;91995.72;;;5.00;46.78
59274;BME280;45044;41.572;24.730;2023-02-12T12:31:08;91993.81;;;5.10;46.36
59274;BME280;45044;41.572;24.730;2023-02-12T12:41:26;92008.22;;;4.73;46.52
59274;BME280;45044;41.572;24.730;2023-02-12T12:44:05;92003.91;;;4.77;48.42
59274;BME280;45044;41.572;24.730;2023-02-12T12:49:20;92015.44;;;5.10;47.83
59274;BME280;45044;41.572;24.730;2023-02-12T12:57:38;92023.81;;;5.75;46.30
59274;BME280;45044;41.572;24.730;2023-02-12T13:03:25;92035.44;;;4.63;48.66
59274;BME280;45044;41.572;24.730;2023-02-12T13:14:34;92045.84;;;4.85;48.91
59274;BME280;45044;41.572;24.730;2023-02-12T13:27:41;92055.63;;;4.88;50.03
59274;BME280;45044;41.572;24.730;2023-02-12T13:30:22;92063.00;;;4.86;50.12
59274;BME280;45044;41.572;24.730;2023-02-12T13:33:00;92067.09;;;4.44;49.54
59274;BME280;45044;41.572;24.730;2023-02-12T13:35:32;92066.50;;;4.38;51.01
59274;BME280;45044;41.572;24.730;2023-02-12T13:38:01;92069.88;;;4.39;50.98
59274;BME280;45044;41.572;24.730;2023-02-12T13:40:29;92073.38;;;4.43;51.83
59274;BME280;45044;41.572;24.730;2023-02-12T13:45:58;92090.88;;;3.94;52.32
59274;BME280;45044;41.572;24.730;2023-02-12T13:51:41;92086.84;;;3.76;53.97
59274;BME280;45044;41.572;24.730;2023-02-12T13:54:47;92079.97;;;3.62;53.75
59274;BME280;45044;41.572;24.730;2023-02-12T13:57:20;92099.59;;;3.51;53.56
59274;BME280;45044;41.572;24.730;2023-02-12T13:59:52;92087.94;;;3.57;56.09
59274;BME280;45044;41.572;24.730;2023-02-12T14:07:20;92102.84;;;3.21;55.76
59274;BME280;45044;41.572;24.730;2023-02-12T14:14:53;92109.41;;;3.18;58.34
59274;BME280;45044;41.572;24.730;2023-02-12T14:27:49;92122.84;;;3.03;59.44
59274;BME280;45044;41.572;24.730;2023-02-12T14:30:41;92138.28;;;3.08;58.09
59274;BME280;45044;41.572;24.730;2023-02-12T14:33:15;92139.97;;;3.04;58.88
59274;BME280;45044;41.572;24.730;2023-02-12T14:35:46;92139.69;;;3.05;60.00
59274;BME280;45044;41.572;24.730;2023-02-12T14:43:31;92136.88;;;2.84;58.55
59274;BME280;45044;41.572;24.730;2023-02-12T14:48:53;92160.44;;;2.96;60.86
59274;BME280;45044;41.572;24.730;2023-02-12T14:53:54;92167.09;;;2.62;59.22
59274;BME280;45044;41.572;24.730;2023-02-12T14:56:22;92173.50;;;2.56;60.21
59274;BME280;45044;41.572;24.730;2023-02-12T14:58:54;92177.91;;;2.46;63.07
59274;BME280;45044;41.572;24.730;2023-02-12T15:01:33;92181.25;;;2.47;63.18
59274;BME280;45044;41.572;24.730;2023-02-12T15:04:19;92194.50;;;2.36;64.25
59274;BME280;45044;41.572;24.730;2023-02-12T15:07:09;92182.09;;;2.24;65.47
59274;BME280;45044;41.572;24.730;2023-02-12T15:09:56;92179.06;;;2.31;70.21
59274;BME280;45044;41.572;24.730;2023-02-12T15:12:33;92199.56;;;2.42;69.92
59274;BME280;45044;41.572;24.730;2023-02-12T15:15:26;92206.69;;;2.27;71.36
59274;BME280;45044;41.572;24.730;2023-02-12T15:18:01;92213.56;;;2.32;69.10
59274;BME280;45044;41.572;24.730;2023-02-12T15:21:08;92228.78;;;2.24;69.76
59274;BME280;45044;41.572;24.730;2023-02-12T15:23:42;92237.88;;;2.36;68.77
59274;BME280;45044;41.572;24.730;2023-02-12T15:26:13;92241.91;;;2.19;73.42
59274;BME280;45044;41.572;24.730;2023-02-12T15:28:42;92246.16;;;1.92;71.78
59274;BME280;45044;41.572;24.730;2023-02-12T15:31:14;92259.78;;;1.98;70.74